Peotone Weather

Nearby METAR Reports

 

KIGQ - Lansing, Illinois, USA
Distance from station: NE 19mi, 30km
Updated: Thu, 17-Aug-2017 8:15pm CDT
Mostly cloudy
Mostly cloudy
 Wind from SSW
Wind: SSW 8 mph , 13 km/h
Temperature: 75°F , 24°C
Dew Point: 64°F , 18°C
Humidity: 69%
Barometer: 29.77 inHg , 1008.1 hPa
Clouds: Mostly cloudy
Visibility: 10 miles , 16 km
Cloud details: Mostly cloudy 6000 ft
2017/08/18 01:15 KIGQ 180115Z AUTO 21007KT 10SM BKN060 24/18 A2977 RMK AO2 T02410181
KIKK - Kankakee, Illinois, USA
Distance from station: S 19mi, 30km
Updated: Thu, 17-Aug-2017 8:16pm CDT
Partly cloudy
Partly cloudy
 Wind from calm
Wind: Calm
Temperature: 75°F , 24°C
Dew Point: 70°F , 21°C
Humidity: 83%
Barometer: 29.81 inHg , 1009.5 hPa
Clouds: Partly cloudy
Visibility: 10 miles , 16 km
Cloud details: Partly cloudy 4100 ft
Partly cloudy 5000 ft
Partly cloudy 5500 ft
2017/08/18 01:16 KIKK 180116Z AUTO 00000KT 10SM SCT041 SCT050 SCT055 24/21 A2981 RMK AO2
 
KSJC - Joliet, Illinois, USA
Distance from station: WNW 24mi, 38km
Updated: Thu, 17-Aug-2017 7:53pm CDT
Few Clouds
Few Clouds
 Wind from WNW
Wind: WNW 13 mph , 20 km/h
Temperature: 75°F , 24°C
Dew Point: 61°F , 16°C
Humidity: 61%
Barometer: 29.95 inHg , 1014.2 hPa
Clouds: Few Clouds
Visibility: 10 miles , 16 km
Cloud details: Few Clouds 5500 ft
2017/08/18 00:53 KSJC 180053Z 30011KT 10SM FEW055 24/16 A2995 RMK AO2 SLP139 T02440161
KLOT - Romeoville, Illinois, USA
Distance from station: NW 26mi, 41km
Updated: Thu, 17-Aug-2017 8:15pm CDT
Overcast
Overcast
 Wind from W
Wind: W 14 mph , 22 km/h, Gust: 21 mph , 33 km/h
Temperature: 77°F , 25°C
Dew Point: 64°F , 18°C
Humidity: 65%
Barometer: 29.78 inHg , 1008.5 hPa
Clouds: Overcast
Visibility: 10 miles , 16 km
Cloud details: Partly cloudy 4200 ft
Partly cloudy 5000 ft
Overcast 6500 ft
2017/08/18 01:15 KLOT 180115Z AUTO 27012G18KT 10SM SCT042 SCT050 OVC065 25/18 A2978 RMK AO2 T02450177
 
KMDW - Midway Airport Chicago, Illinois, USA
Distance from station: N 31mi, 50km
Updated: Thu, 17-Aug-2017 7:53pm CDT
Mostly cloudy
Mostly cloudy
 Wind from WSW
Wind: WSW 12 mph , 19 km/h
Temperature: 81°F , 27°C
Heat Index: 83°F , 28°C
Dew Point: 64°F , 18°C
Humidity: 58%
Barometer: 29.74 inHg , 1007.1 hPa
Clouds: Mostly cloudy
Visibility: 10 miles , 16 km
Cloud details: Few Clouds 4200 ft
Mostly cloudy 7000 ft
Mostly cloudy 25000 ft
2017/08/18 00:53 KMDW 180053Z 25010KT 10SM FEW042 BKN070 BKN250 27/18 A2974 RMK AO2 SLP062 T02670183
KC09 - Morris, Illinois, USA
Distance from station: W 34mi, 54km
Updated: Thu, 17-Aug-2017 8:15pm CDT
Mostly cloudy
Mostly cloudy
 Wind from W
Wind: W 10 mph , 17 km/h, Gust: 18 mph , 30 km/h
Temperature: 75°F , 24°C
Dew Point: 64°F , 18°C
Humidity: 69%
Barometer: 29.78 inHg , 1008.5 hPa
Clouds: Mostly cloudy
Visibility: 10 miles , 16 km
Cloud details: Partly cloudy 4500 ft
Mostly cloudy 6000 ft
2017/08/18 01:15 KC09 180115Z AUTO 27009G16KT 10SM SCT045 BKN060 24/18 A2978 RMK AO2 T02420182

Metar display script from Saratoga-Weather.org